Weather reports worldwide

Advertisment
Chillingham Barns, United Kingdom (99196): temperature & dewpoint: 17.05.2018 02:00:00 - 23.05.2018 02:00:00 (BST)Chillingham Barns, United Kingdom (99196): precipitation: 17.05.2018 02:00:00 - 23.05.2018 02:00:00 (BST)
Date & Time tt [°C] td [°C] rr [mm]
23.05.2018 02:00:00 8,3 7,5 0,0
23.05.2018 01:00:00 8,3 7,9 0,0
23.05.2018 00:00:00 8,4 8,0 0,0
22.05.2018 23:00:00 8,3 7,9 0,2
22.05.2018 22:00:00 8,4 8,0 0,0
22.05.2018 21:00:00 8,5 7,9 0,0
22.05.2018 20:00:00 8,8 8,2 0,0
22.05.2018 19:00:00 8,9 8,2 0,0
22.05.2018 18:00:00 8,9 8,2 0,0
22.05.2018 17:00:00 9,1 8,3 0,0
22.05.2018 16:00:00 8,9 8,1 0,0
22.05.2018 15:00:00 9,0 8,1 0,0
22.05.2018 14:00:00 9,3 8,1 0,0
22.05.2018 13:00:00 9,6 8,6 0,0
22.05.2018 12:00:00 9,5 8,3 0,0
22.05.2018 11:00:00 9,0 8,4 0,2
22.05.2018 10:00:00 8,4 7,8 0,2
22.05.2018 09:00:00 8,0 7,6 0,2
22.05.2018 08:00:00 7,9 7,5 0,2
22.05.2018 07:00:00 7,6 7,2 0,4
22.05.2018 06:00:00 7,6 7,3 0,2
22.05.2018 05:00:00 7,5 7,1 0,2
22.05.2018 04:00:00 7,6 7,3 0,0
22.05.2018 03:00:00 7,9 7,3 0,0
22.05.2018 02:00:00 8,1 7,4 0,0
22.05.2018 01:00:00 8,3 7,6 0,0
22.05.2018 00:00:00 9,1 8,4 0,0
21.05.2018 23:00:00 11,2 8,1 0,0
21.05.2018 22:00:00 12,7 8,2 0,0
21.05.2018 21:00:00 14,4 7,9 0,0
21.05.2018 20:00:00 16,1 8,1 0,0
21.05.2018 19:00:00 16,9 7,5 0,0
21.05.2018 18:00:00 17,9 8,4 0,0
21.05.2018 17:00:00 19,5 9,8 0,0
21.05.2018 16:00:00 20,2 10,5 0,0
21.05.2018 15:00:00 20,7 10,5 0,0
21.05.2018 14:00:00 21,0 10,5 0,0
21.05.2018 13:00:00 21,0 12,1 0,0
21.05.2018 12:00:00 20,5 11,8 0,0
21.05.2018 11:00:00 18,9 11,4 0,0
21.05.2018 10:00:00 17,0 10,3 0,0
21.05.2018 09:00:00 14,8 12,0 0,0
21.05.2018 08:00:00 12,6 11,2 0,0
21.05.2018 07:00:00 9,0 8,8 0,0
21.05.2018 06:00:00 7,5 7,2 0,0
21.05.2018 05:00:00 7,7 7,2 0,0
21.05.2018 04:00:00 8,1 7,7 0,0
21.05.2018 03:00:00 8,4 8,0 0,0
21.05.2018 02:00:00 8,3 7,8 0,0
21.05.2018 01:00:00 9,5 8,4 0,0
21.05.2018 00:00:00 9,7 8,4 0,0
20.05.2018 23:00:00 10,2 8,7 0,0
20.05.2018 22:00:00 11,6 9,2 0,0
20.05.2018 21:00:00 14,5 10,4 0,0
20.05.2018 20:00:00 17,2 10,0 0,0
20.05.2018 19:00:00 18,2 9,4 0,0
20.05.2018 18:00:00 19,2 8,2 0,0
20.05.2018 17:00:00 19,5 6,4 0,0
20.05.2018 16:00:00 19,5 8,1 0,0
20.05.2018 15:00:00 19,6 8,4 0,0
20.05.2018 14:00:00 19,1 7,6 0,0
20.05.2018 13:00:00 18,5 8,0 0,0
20.05.2018 12:00:00 18,3 7,8 0,0
20.05.2018 11:00:00 17,3 7,4 0,0
20.05.2018 10:00:00 16,3 7,4 0,0
20.05.2018 09:00:00 14,8 7,5 0,0
20.05.2018 08:00:00 13,9 6,1 0,0
20.05.2018 07:00:00 12,1 6,3 0,0
20.05.2018 06:00:00 10,6 4,8 0,0
20.05.2018 05:00:00 10,6 5,0 0,0
20.05.2018 04:00:00 9,3 4,8 0,0
20.05.2018 03:00:00 9,0 4,9 0,0
20.05.2018 02:00:00 10,2 4,6 0,0
20.05.2018 01:00:00 10,7 5,1 0,0
20.05.2018 00:00:00 11,2 4,8 0,0
19.05.2018 23:00:00 12,0 4,8 0,0
19.05.2018 22:00:00 12,4 4,5 0,0
19.05.2018 21:00:00 14,5 5,4 0,0
19.05.2018 20:00:00 16,1 7,7 0,0
19.05.2018 19:00:00 16,8 7,5 0,0
19.05.2018 18:00:00 17,4 8,2 0,0
19.05.2018 17:00:00 17,5 8,6 0,0
19.05.2018 16:00:00 18,1 9,1 0,0
19.05.2018 15:00:00 18,8 9,2 0,0
19.05.2018 14:00:00 19,7 7,0 0,0
19.05.2018 13:00:00 19,7 7,3 0,0
19.05.2018 12:00:00 19,0 7,8 0,0
19.05.2018 11:00:00 18,1 8,6 0,0
19.05.2018 10:00:00 16,2 7,3 0,0
19.05.2018 09:00:00 13,7 8,7 0,0
19.05.2018 08:00:00 10,1 7,5 0,0
19.05.2018 07:00:00 6,2 5,3 0,0
19.05.2018 06:00:00 4,1 3,3 0,0
19.05.2018 05:00:00 3,8 2,7 0,0
19.05.2018 04:00:00 3,9 2,6 0,0
19.05.2018 03:00:00 4,4 2,5 0,0
19.05.2018 02:00:00 5,4 2,3 0,0
19.05.2018 01:00:00 6,5 2,4 0,0
19.05.2018 00:00:00 8,9 2,1 0,0
18.05.2018 23:00:00 9,6 1,8 0,0
18.05.2018 22:00:00 10,0 0,5 0,0
18.05.2018 21:00:00 11,5 1,4 0,0
18.05.2018 20:00:00 12,8 1,6 0,0
18.05.2018 19:00:00 13,7 2,8 0,0
18.05.2018 18:00:00 15,1 5,3 0,0
18.05.2018 17:00:00 15,3 5,6 0,0
18.05.2018 16:00:00 16,9 6,5 0,0
18.05.2018 15:00:00 17,0 7,2 0,0
18.05.2018 14:00:00 15,8 6,4 0,0
18.05.2018 13:00:00 16,7 6,3 0,0
18.05.2018 12:00:00 16,4 5,8 0,0
18.05.2018 11:00:00 15,9 4,3 0,0
18.05.2018 10:00:00 14,4 3,3 0,0
18.05.2018 09:00:00 11,5 2,8 0,0
18.05.2018 08:00:00 6,0 2,6 0,0
18.05.2018 07:00:00 2,5 1,8 0,0
18.05.2018 06:00:00 -0,1 -0,5 0,0
18.05.2018 05:00:00 -0,4 -1,0 0,0
18.05.2018 04:00:00 0,5 -0,1 0,0
18.05.2018 03:00:00 0,7 0,0 0,0
18.05.2018 02:00:00 1,4 0,5 0,0
18.05.2018 01:00:00 2,3 1,1 0,0
18.05.2018 00:00:00 3,3 2,2 0,0
17.05.2018 23:00:00 4,0 1,7 0,0
17.05.2018 22:00:00 5,8 2,3 0,0
17.05.2018 21:00:00 8,3 2,4 0,0
17.05.2018 20:00:00 9,6 2,5 0,0
17.05.2018 19:00:00 11,0 3,0 0,0
17.05.2018 18:00:00 12,4 2,2 0,0
17.05.2018 17:00:00 12,8 2,2 0,0
17.05.2018 16:00:00 13,3 2,2 0,0
17.05.2018 15:00:00 12,5 4,0 0,0
17.05.2018 14:00:00 12,7 4,5 0,0
17.05.2018 13:00:00 12,3 3,1 0,0
17.05.2018 12:00:00 12,3 4,6 0,0
17.05.2018 11:00:00 11,9 4,8 0,0
17.05.2018 10:00:00 11,1 4,7 0,0
17.05.2018 09:00:00 9,3 5,2 0,0
17.05.2018 08:00:00 5,6 4,8 0,0
17.05.2018 07:00:00 2,3 2,2 0,0
17.05.2018 06:00:00 0,5 0,2 0,0
17.05.2018 05:00:00 1,2 1,0 0,0
17.05.2018 04:00:00 0,6 0,2 0,0
17.05.2018 03:00:00 1,6 1,2 0,0
17.05.2018 02:00:00 1,8 1,3 0,0

tt = temperature
td = dewpoint
rr = precipitation

Next stations